Taiban, New Mexico
Current Conditions -  °F | °C
As of 6:56 AM on Wednesday 28 Jan 2015 (Local Time) from K4MR Reporting Station
Few Clouds Few Clouds  
Wind Chill: 43°   Ceiling: Unl
Heat Index: 49°   Visibility: 10mi
Dew Point: 35°   Wind: 20mph
Humidity: 58%   Direction: 250°WSW
Pressure: 30.12"   Gusts: 25mph
Location:  34.44°N, 104.01°W
Report Text: K4MR 281356Z AUTO 25017G22KT 10SM FEW240 10/02 A3012 RMK AO2 SLP175 T00970019
Loading
Personal Weather Stations






























Interactive Weather Map New forecast layout! Learn more

10-Day Weather Forecast

Advertisements
Track Severe Weather on mobile